createdAt,value
2018-05-11T00:00:04.625Z,13.9
2018-05-11T00:01:04.050Z,13.9
2018-05-11T00:02:03.361Z,13.9
2018-05-11T00:02:33.892Z,13.9
2018-05-11T00:03:04.018Z,13.8
2018-05-11T00:04:01.721Z,13.9
2018-05-11T00:05:01.158Z,13.8
2018-05-11T00:07:58.868Z,13.9
2018-05-11T00:08:58.078Z,13.9
2018-05-11T00:09:57.495Z,13.9
2018-05-11T00:10:56.484Z,13.9
2018-05-11T00:11:55.695Z,13.9
2018-05-11T00:12:55.123Z,13.9
2018-05-11T00:13:54.450Z,13.8
2018-05-11T00:14:53.552Z,13.8
2018-05-11T00:15:52.982Z,13.8
2018-05-11T00:16:52.414Z,13.9
2018-05-11T00:17:51.337Z,13.8
2018-05-11T00:18:50.659Z,13.8
2018-05-11T00:19:49.759Z,13.8
2018-05-11T00:20:49.078Z,13.9
2018-05-11T00:21:48.685Z,13.9
2018-05-11T00:22:47.681Z,13.9
2018-05-11T00:23:47.010Z,13.8
2018-05-11T00:25:45.632Z,13.9
2018-05-11T00:26:44.680Z,13.8
2018-05-11T00:27:43.997Z,13.8
2018-05-11T00:28:43.428Z,13.8
2018-05-11T00:29:42.749Z,13.8
2018-05-11T00:30:41.966Z,13.8
2018-05-11T00:31:40.888Z,13.8
2018-05-11T00:32:40.319Z,13.8
2018-05-11T00:33:39.527Z,13.8
2018-05-11T00:34:38.737Z,13.8
2018-05-11T00:35:38.053Z,13.8
2018-05-11T00:36:37.372Z,13.8
2018-05-11T00:37:36.698Z,13.8
2018-05-11T00:38:35.630Z,13.8
2018-05-11T00:39:34.834Z,13.8
2018-05-11T00:40:33.948Z,13.8
2018-05-11T00:41:33.373Z,13.8
2018-05-11T00:42:32.482Z,13.8
2018-05-11T00:43:31.696Z,13.8
2018-05-11T00:44:31.010Z,13.8
2018-05-11T00:45:30.722Z,13.8
2018-05-11T00:46:29.938Z,13.7
2018-05-11T00:47:29.150Z,13.7
2018-05-11T00:48:28.309Z,13.7
2018-05-11T00:49:27.408Z,13.7
2018-05-11T00:50:26.735Z,13.7
2018-05-11T00:51:25.949Z,13.7
2018-05-11T00:52:25.289Z,13.7
2018-05-11T00:53:24.734Z,13.7
2018-05-11T00:54:23.950Z,13.7
2018-05-11T00:55:23.272Z,13.7
2018-05-11T00:56:22.372Z,13.7
2018-05-11T00:57:21.584Z,13.6
2018-05-11T00:58:21.021Z,13.6
2018-05-11T00:59:20.130Z,13.6
2018-05-11T01:00:19.454Z,13.6
2018-05-11T01:01:18.777Z,13.6
2018-05-11T01:02:18.017Z,13.6
2018-05-11T01:03:16.727Z,13.6
2018-05-11T01:05:15.329Z,13.5
2018-05-11T01:06:15.040Z,13.5
2018-05-11T01:07:14.138Z,13.5
2018-05-11T01:10:11.845Z,13.6
2018-05-11T01:10:42.375Z,13.6
2018-05-11T01:11:12.897Z,13.6
2018-05-11T01:11:43.421Z,13.6
2018-05-11T01:12:14.050Z,13.5
2018-05-11T01:12:44.289Z,13.5
2018-05-11T01:14:08.886Z,13.5
2018-05-11T01:15:08.116Z,13.5
2018-05-11T01:16:07.344Z,13.5
2018-05-11T01:17:06.663Z,13.5
2018-05-11T01:18:05.978Z,13.5
2018-05-11T01:19:05.196Z,13.5
2018-05-11T01:20:04.522Z,13.4
2018-05-11T01:21:03.849Z,13.4
2018-05-11T01:21:34.369Z,13.4
2018-05-11T01:22:04.893Z,13.3
2018-05-11T01:22:35.533Z,13.3
2018-05-11T01:23:06.056Z,13.3
2018-05-11T01:23:36.574Z,13.3
2018-05-11T01:25:00.664Z,13.3
2018-05-11T01:26:00.096Z,13.2
2018-05-11T01:26:58.808Z,13.2
2018-05-11T01:27:58.227Z,13.3
2018-05-11T01:28:57.331Z,13.2
2018-05-11T01:29:56.663Z,13.2
2018-05-11T01:30:56.378Z,13.2
2018-05-11T01:31:55.201Z,13.2
2018-05-11T01:32:54.498Z,13.1
2018-05-11T01:33:25.013Z,13.1
2018-05-11T01:33:55.665Z,13.1
2018-05-11T01:34:25.792Z,13.1
2018-05-11T01:34:56.342Z,13.1
2018-05-11T01:35:26.968Z,13.1
2018-05-11T01:35:57.596Z,13.1
2018-05-11T01:36:51.373Z,13.1
2018-05-11T01:37:50.703Z,13.1
2018-05-11T01:38:49.922Z,13.1
2018-05-11T01:39:49.499Z,13
2018-05-11T01:40:48.610Z,13
2018-05-11T01:41:47.706Z,13
2018-05-11T01:42:46.916Z,12.9
2018-05-11T01:43:46.337Z,12.9
2018-05-11T01:44:45.545Z,12.9
2018-05-11T01:45:44.974Z,12.9
2018-05-11T01:46:43.679Z,12.9
2018-05-11T01:47:43.108Z,12.9
2018-05-11T01:48:42.425Z,12.8
2018-05-11T01:49:41.844Z,12.8
2018-05-11T01:50:40.760Z,12.8
2018-05-11T01:51:39.966Z,12.8
2018-05-11T01:52:39.291Z,12.8
2018-05-11T01:53:09.919Z,12.8
2018-05-11T01:54:37.699Z,12.8
2018-05-11T01:55:37.014Z,12.8
2018-05-11T01:56:36.235Z,12.8
2018-05-11T01:58:35.050Z,12.7
2018-05-11T01:59:33.862Z,12.7
2018-05-11T02:00:33.467Z,12.7
2018-05-11T02:01:32.680Z,12.8
2018-05-11T02:03:30.888Z,12.7
2018-05-11T02:04:01.520Z,12.7
2018-05-11T02:04:31.940Z,12.7
2018-05-11T02:05:02.476Z,12.7
2018-05-11T02:05:33.009Z,12.7
2018-05-11T02:06:28.920Z,12.7
2018-05-11T02:07:27.752Z,12.7
2018-05-11T02:08:27.197Z,12.7
2018-05-11T02:09:26.417Z,12.7
2018-05-11T02:10:25.633Z,12.7
2018-05-11T02:11:24.833Z,12.7
2018-05-11T02:12:24.040Z,12.6
2018-05-11T02:13:23.362Z,12.6
2018-05-11T02:14:22.565Z,12.7
2018-05-11T02:14:52.982Z,12.7
2018-05-11T02:15:23.407Z,12.6
2018-05-11T02:16:21.318Z,12.6
2018-05-11T02:17:20.424Z,12.6
2018-05-11T02:18:19.737Z,12.6
2018-05-11T02:19:18.650Z,12.6
2018-05-11T02:20:17.865Z,12.7
2018-05-11T02:21:17.187Z,12.7
2018-05-11T02:22:16.687Z,12.7
2018-05-11T02:23:15.988Z,12.6
2018-05-11T02:24:14.906Z,12.6
2018-05-11T02:25:14.340Z,12.6
2018-05-11T02:26:13.052Z,12.6
2018-05-11T02:27:12.480Z,12.6
2018-05-11T02:29:11.186Z,12.5
2018-05-11T02:30:10.395Z,12.5
2018-05-11T02:31:09.348Z,12.5
2018-05-11T02:32:08.685Z,12.5
2018-05-11T02:33:08.019Z,12.5
2018-05-11T02:34:07.466Z,12.5
2018-05-11T02:35:06.074Z,12.5
2018-05-11T02:36:05.797Z,12.5
2018-05-11T02:37:05.120Z,12.5
2018-05-11T02:38:03.730Z,12.5
2018-05-11T02:39:03.065Z,12.5
2018-05-11T02:40:02.179Z,12.5
2018-05-11T02:41:01.899Z,12.5
2018-05-11T02:42:01.015Z,12.5
2018-05-11T02:43:00.246Z,12.5
2018-05-11T02:44:58.844Z,12.4
2018-05-11T02:45:58.177Z,12.4
2018-05-11T02:46:57.004Z,12.4
2018-05-11T02:47:56.340Z,12.4
2018-05-11T02:48:55.772Z,12.4
2018-05-11T02:49:54.984Z,12.4
2018-05-11T02:51:53.302Z,12.4
2018-05-11T02:54:50.902Z,12.4
2018-05-11T02:55:50.324Z,12.4
2018-05-11T02:56:49.443Z,12.5
2018-05-11T02:57:48.902Z,12.4
2018-05-11T02:58:47.887Z,12.4
2018-05-11T02:59:18.422Z,12.4
2018-05-11T02:59:49.184Z,12.4
2018-05-11T03:00:19.829Z,12.4
2018-05-11T03:02:44.721Z,12.4
2018-05-11T03:04:43.541Z,12.4
2018-05-11T03:05:42.267Z,12.4
2018-05-11T03:06:41.595Z,12.4
2018-05-11T03:07:41.033Z,12.4
2018-05-11T03:08:39.967Z,12.4
2018-05-11T03:09:10.225Z,12.4
2018-05-11T03:09:40.765Z,12.4
2018-05-11T03:10:11.535Z,12.4
2018-05-11T03:10:42.188Z,12.3
2018-05-11T03:11:12.720Z,12.3
2018-05-11T03:12:36.750Z,12.3
2018-05-11T03:13:35.965Z,12.3
2018-05-11T03:14:35.427Z,12.3
2018-05-11T03:15:34.765Z,12.3
2018-05-11T03:16:33.903Z,12.3
2018-05-11T03:17:33.243Z,12.3
2018-05-11T03:18:32.937Z,12.3
2018-05-11T03:19:31.738Z,12.3
2018-05-11T03:20:30.666Z,12.3
2018-05-11T03:21:29.882Z,12.3
2018-05-11T03:22:29.303Z,12.2
2018-05-11T03:23:28.727Z,12.3
2018-05-11T03:24:27.561Z,12.3
2018-05-11T03:25:26.779Z,12.3
2018-05-11T03:26:25.988Z,12.3
2018-05-11T03:27:25.421Z,12.3
2018-05-11T03:28:24.741Z,12.3
2018-05-11T03:28:54.871Z,12.3
2018-05-11T03:29:25.616Z,12.3
2018-05-11T03:29:55.916Z,12.3
2018-05-11T03:30:26.561Z,12.3
2018-05-11T03:30:56.981Z,12.3
2018-05-11T03:31:27.422Z,12.3
2018-05-11T03:32:21.510Z,12.3
2018-05-11T03:33:20.937Z,12.3
2018-05-11T03:34:20.170Z,12.3
2018-05-11T03:35:19.100Z,12.2
2018-05-11T03:37:17.596Z,12.2
2018-05-11T03:39:16.379Z,12.2
2018-05-11T03:39:46.579Z,12.2
2018-05-11T03:40:17.222Z,12.2
2018-05-11T03:40:47.607Z,12.2
2018-05-11T03:41:18.253Z,12.2
2018-05-11T03:41:48.895Z,12.2
2018-05-11T03:42:19.043Z,12.2
2018-05-11T03:42:49.680Z,12.2
2018-05-11T03:44:12.349Z,12.2
2018-05-11T03:45:11.426Z,12.2
2018-05-11T03:46:10.856Z,12.2
2018-05-11T03:47:10.069Z,12.2
2018-05-11T03:48:08.784Z,12.3
2018-05-11T03:49:08.511Z,12.2
2018-05-11T03:50:07.440Z,12.2
2018-05-11T03:50:37.973Z,12.2
2018-05-11T03:51:08.715Z,12.2
2018-05-11T03:51:39.129Z,12.2
2018-05-11T03:52:09.888Z,12.2
2018-05-11T03:52:40.128Z,12.2
2018-05-11T03:54:04.633Z,12.2
2018-05-11T03:55:03.244Z,12.2
2018-05-11T03:56:02.455Z,12.2
2018-05-11T03:57:02.178Z,12.2
2018-05-11T03:58:01.403Z,12.2
2018-05-11T03:59:00.520Z,12.2
2018-05-11T04:00:58.627Z,12.2
2018-05-11T04:01:57.958Z,12.2
2018-05-11T04:02:57.283Z,12.2
2018-05-11T04:03:56.713Z,12.2
2018-05-11T04:04:55.536Z,12.2
2018-05-11T04:05:54.863Z,12.2
2018-05-11T04:06:54.187Z,12.2
2018-05-11T04:07:53.509Z,12.2
2018-05-11T04:08:52.445Z,12.2
2018-05-11T04:09:51.553Z,12.2
2018-05-11T04:10:50.865Z,12.2
2018-05-11T04:11:50.073Z,12.2
2018-05-11T04:13:48.679Z,12.2
2018-05-11T04:14:47.899Z,12.2
2018-05-11T04:15:47.322Z,12.2
2018-05-11T04:16:46.252Z,12.1
2018-05-11T04:17:45.475Z,12.2
2018-05-11T04:18:44.903Z,12.2
2018-05-11T04:19:44.122Z,12.2
2018-05-11T04:20:42.942Z,12.2
2018-05-11T04:21:42.484Z,12.2
2018-05-11T04:22:12.810Z,12.2
2018-05-11T04:22:42.846Z,12.2
2018-05-11T04:23:13.165Z,12.2
2018-05-11T04:23:43.800Z,12.2
2018-05-11T04:24:40.128Z,12.2
2018-05-11T04:25:39.593Z,12.2
2018-05-11T04:26:38.527Z,12.2
2018-05-11T04:27:37.956Z,12.2
2018-05-11T04:28:36.896Z,12.2
2018-05-11T04:29:36.108Z,12.2
2018-05-11T04:30:35.323Z,12.2
2018-05-11T04:31:34.532Z,12.2
2018-05-11T04:32:33.638Z,12.2
2018-05-11T04:33:32.965Z,12.2
2018-05-11T04:34:32.292Z,12.2
2018-05-11T04:35:31.729Z,12.2
2018-05-11T04:36:30.460Z,12.2
2018-05-11T04:37:29.676Z,12.2
2018-05-11T04:38:28.893Z,12.2
2018-05-11T04:39:28.222Z,12.2
2018-05-11T04:40:27.542Z,12.2
2018-05-11T04:41:26.760Z,12.2
2018-05-11T04:42:26.088Z,12.2
2018-05-11T04:43:25.039Z,12.2
2018-05-11T04:44:24.371Z,12.2
2018-05-11T04:45:23.767Z,12.2
2018-05-11T04:46:22.721Z,12.2
2018-05-11T04:47:21.947Z,12.2
2018-05-11T04:49:20.340Z,12.2
2018-05-11T04:50:19.457Z,12.2
2018-05-11T04:51:18.779Z,12.2
2018-05-11T04:52:18.104Z,12.2
2018-05-11T04:53:17.435Z,12.2
2018-05-11T04:55:15.540Z,12.3
2018-05-11T04:56:14.857Z,12.3
2018-05-11T04:57:13.963Z,12.2
2018-05-11T04:58:13.162Z,12.2
2018-05-11T04:59:12.600Z,12.2
2018-05-11T05:00:11.832Z,12.2
2018-05-11T05:01:10.940Z,12.3
2018-05-11T05:02:10.265Z,12.3
2018-05-11T05:03:09.705Z,12.3
2018-05-11T05:04:08.631Z,12.4
2018-05-11T05:05:07.734Z,12.4
2018-05-11T05:06:07.170Z,12.4
2018-05-11T05:07:06.298Z,12.4
2018-05-11T05:08:05.510Z,12.3
2018-05-11T05:09:04.729Z,12.3
2018-05-11T05:10:04.048Z,12.3
2018-05-11T05:11:03.268Z,12.4
2018-05-11T05:12:02.609Z,12.3
2018-05-11T05:13:01.723Z,12.3
2018-05-11T05:14:01.054Z,12.3
2018-05-11T05:15:00.378Z,12.3
2018-05-11T05:15:59.097Z,12.4
2018-05-11T05:16:58.315Z,12.4
2018-05-11T05:17:28.858Z,12.4
2018-05-11T05:17:59.275Z,12.4
2018-05-11T05:18:56.988Z,12.4
2018-05-11T05:19:56.138Z,12.4
2018-05-11T05:20:55.250Z,12.4
2018-05-11T05:21:54.481Z,12.4
2018-05-11T05:22:53.700Z,12.5
2018-05-11T05:24:52.314Z,12.4
2018-05-11T05:25:51.435Z,12.4
2018-05-11T05:26:50.670Z,12.4
2018-05-11T05:27:20.916Z,12.4
2018-05-11T05:27:51.009Z,12.4
2018-05-11T05:28:21.540Z,12.4
2018-05-11T05:28:51.856Z,12.5
2018-05-11T05:29:48.546Z,12.4
2018-05-11T05:30:47.775Z,12.5
2018-05-11T05:31:46.886Z,12.5
2018-05-11T05:32:46.215Z,12.5
2018-05-11T05:33:45.144Z,12.5
2018-05-11T05:34:44.371Z,12.5
2018-05-11T05:35:43.597Z,12.5
2018-05-11T05:36:43.034Z,12.5
2018-05-11T05:37:42.355Z,12.5
2018-05-11T05:38:41.292Z,12.5
2018-05-11T05:39:40.524Z,12.5
2018-05-11T05:40:39.645Z,12.5
2018-05-11T05:41:38.995Z,12.5
2018-05-11T05:42:38.445Z,12.5
2018-05-11T05:43:37.413Z,12.5
2018-05-11T05:44:36.734Z,12.5
2018-05-11T05:45:36.062Z,12.4
2018-05-11T05:46:34.987Z,12.4
2018-05-11T05:47:34.310Z,12.4
2018-05-11T05:48:33.527Z,12.4
2018-05-11T05:49:32.964Z,12.4
2018-05-11T05:50:32.184Z,12.4
2018-05-11T05:51:31.014Z,12.5
2018-05-11T05:52:30.356Z,12.5
2018-05-11T05:53:29.683Z,12.4
2018-05-11T05:54:28.787Z,12.4
2018-05-11T05:55:28.116Z,12.4
2018-05-11T05:56:27.446Z,12.4
2018-05-11T05:57:26.767Z,12.4
2018-05-11T05:58:25.819Z,12.4
2018-05-11T05:58:56.195Z,12.4
2018-05-11T05:59:26.851Z,12.4
2018-05-11T05:59:57.667Z,12.4
2018-05-11T06:01:23.620Z,12.4
2018-05-11T06:02:22.991Z,12.4
2018-05-11T06:03:22.004Z,12.4
2018-05-11T06:05:20.213Z,12.4
2018-05-11T06:06:19.325Z,12.4
2018-05-11T06:07:18.555Z,12.4
2018-05-11T06:08:18.245Z,12.4
2018-05-11T06:09:17.060Z,12.5
2018-05-11T06:09:47.806Z,12.5
2018-05-11T06:10:18.440Z,12.5
2018-05-11T06:11:15.655Z,12.5
2018-05-11T06:12:14.999Z,12.5
2018-05-11T06:13:14.313Z,12.5
2018-05-11T06:14:13.629Z,12.5
2018-05-11T06:15:12.344Z,12.5
2018-05-11T06:16:11.780Z,12.5
2018-05-11T06:17:11.209Z,12.6
2018-05-11T06:18:10.144Z,12.6
2018-05-11T06:19:09.365Z,12.6
2018-05-11T06:20:08.699Z,12.6
2018-05-11T06:20:38.964Z,12.6
2018-05-11T06:21:09.601Z,12.6
2018-05-11T06:22:07.735Z,12.6
2018-05-11T06:23:06.323Z,12.5
2018-05-11T06:24:05.659Z,12.6
2018-05-11T06:25:04.781Z,12.6
2018-05-11T06:25:35.532Z,12.6
2018-05-11T06:26:05.566Z,12.6
2018-05-11T06:27:03.274Z,12.6
2018-05-11T06:28:02.489Z,12.6
2018-05-11T06:29:01.606Z,12.7
2018-05-11T06:30:01.038Z,12.7
2018-05-11T06:31:00.473Z,12.7
2018-05-11T06:31:59.421Z,12.8
2018-05-11T06:32:58.647Z,12.7
2018-05-11T06:33:58.096Z,12.7
2018-05-11T06:34:57.003Z,12.7
2018-05-11T06:35:56.334Z,12.7
2018-05-11T06:36:26.474Z,12.7
2018-05-11T06:36:57.223Z,12.7
2018-05-11T06:37:54.928Z,12.7
2018-05-11T06:38:54.240Z,12.7
2018-05-11T06:39:53.077Z,12.6
2018-05-11T06:41:51.899Z,12.6
2018-05-11T06:42:50.622Z,12.6
2018-05-11T06:43:50.058Z,12.7
2018-05-11T06:44:49.296Z,12.7
2018-05-11T06:45:48.613Z,12.7
2018-05-11T06:46:47.618Z,12.7
2018-05-11T06:47:46.942Z,12.7
2018-05-11T06:48:46.163Z,12.7
2018-05-11T06:50:44.663Z,12.7
2018-05-11T06:51:43.984Z,12.8
2018-05-11T06:52:43.217Z,12.8
2018-05-11T06:53:42.653Z,12.8
2018-05-11T06:54:41.477Z,12.8
2018-05-11T06:55:40.813Z,12.8
2018-05-11T06:56:40.146Z,12.8
2018-05-11T06:57:39.254Z,12.9
2018-05-11T06:58:38.685Z,12.9
2018-05-11T06:59:38.010Z,12.9
2018-05-11T07:00:36.835Z,12.9
2018-05-11T07:01:36.196Z,12.9
2018-05-11T07:02:35.377Z,12.9
2018-05-11T07:03:34.699Z,12.9
2018-05-11T07:04:34.036Z,12.9
2018-05-11T07:05:33.249Z,12.9
2018-05-11T07:06:32.073Z,12.9
2018-05-11T07:07:31.302Z,12.9
2018-05-11T07:08:02.016Z,12.9
2018-05-11T07:09:30.288Z,12.9
2018-05-11T07:10:29.097Z,13
2018-05-11T07:11:28.414Z,13
2018-05-11T07:12:27.836Z,13
2018-05-11T07:13:27.157Z,13
2018-05-11T07:14:26.408Z,13
2018-05-11T07:15:25.748Z,13
2018-05-11T07:16:24.682Z,13
2018-05-11T07:17:24.001Z,13
2018-05-11T07:18:23.214Z,13
2018-05-11T07:18:53.849Z,13
2018-05-11T07:20:21.381Z,13
2018-05-11T07:21:20.709Z,13.1
2018-05-11T07:22:20.146Z,13.1
2018-05-11T07:23:19.257Z,13.1
2018-05-11T07:24:18.473Z,13.1
2018-05-11T07:25:17.807Z,13.1
2018-05-11T07:26:17.134Z,13.1
2018-05-11T07:27:16.461Z,13.1
2018-05-11T07:28:15.675Z,13.1
2018-05-11T07:29:14.610Z,13.1
2018-05-11T07:29:45.243Z,13.1
2018-05-11T07:31:13.259Z,13.2
2018-05-11T07:32:12.476Z,13.1
2018-05-11T07:33:11.815Z,13.2
2018-05-11T07:34:11.038Z,13.2
2018-05-11T07:35:09.859Z,13.2
2018-05-11T07:36:09.296Z,13.2
2018-05-11T07:37:08.701Z,13.3
2018-05-11T07:38:07.914Z,13.2
2018-05-11T07:39:07.348Z,13.1
2018-05-11T07:40:06.174Z,13.2
2018-05-11T07:41:05.416Z,13.3
2018-05-11T07:42:04.633Z,13.3
2018-05-11T07:43:04.729Z,13.2
2018-05-11T07:44:03.206Z,13.3
2018-05-11T07:45:02.433Z,13.3
2018-05-11T07:46:01.872Z,13.3
2018-05-11T07:47:00.712Z,13.3
2018-05-11T07:48:00.170Z,13.3
2018-05-11T07:48:59.515Z,13.3
2018-05-11T07:49:58.726Z,13.3
2018-05-11T07:50:57.797Z,13.3
2018-05-11T07:51:56.904Z,13.3
2018-05-11T07:52:56.744Z,13.3
2018-05-11T07:53:55.560Z,13.3
2018-05-11T07:54:54.891Z,13.3
2018-05-11T07:55:54.218Z,13.4
2018-05-11T07:56:53.443Z,13.4
2018-05-11T07:57:52.786Z,13.4
2018-05-11T07:58:51.716Z,13.5
2018-05-11T07:59:51.032Z,13.5
2018-05-11T08:00:50.646Z,13.5
2018-05-11T08:01:49.379Z,13.5
2018-05-11T08:02:49.115Z,13.5
2018-05-11T08:03:47.889Z,13.5
2018-05-11T08:04:47.264Z,13.5
2018-05-11T08:05:46.701Z,13.6
2018-05-11T08:06:45.940Z,13.5
2018-05-11T08:07:45.173Z,13.5
2018-05-11T08:08:44.609Z,13.4
2018-05-11T08:09:43.537Z,13.3
2018-05-11T08:10:42.768Z,13.3
2018-05-11T08:11:42.198Z,13.3
2018-05-11T08:12:41.494Z,13.3
2018-05-11T08:14:39.698Z,13.4
2018-05-11T08:16:38.513Z,13.5
2018-05-11T08:17:37.451Z,13.5
2018-05-11T08:18:36.780Z,13.5
2018-05-11T08:19:35.884Z,13.4
2018-05-11T08:20:34.993Z,13.4
2018-05-11T08:21:34.423Z,13.5
2018-05-11T08:22:33.659Z,13.5
2018-05-11T08:23:33.161Z,13.5
2018-05-11T08:24:32.484Z,13.5
2018-05-11T08:25:02.921Z,13.5
2018-05-11T08:25:33.452Z,13.5
2018-05-11T08:26:30.931Z,13.5
2018-05-11T08:27:30.054Z,13.6
2018-05-11T08:28:29.382Z,13.6
2018-05-11T08:29:28.594Z,13.7
2018-05-11T08:30:27.815Z,13.7
2018-05-11T08:31:26.762Z,13.7
2018-05-11T08:32:25.990Z,13.8
2018-05-11T08:33:25.418Z,13.8
2018-05-11T08:34:24.635Z,13.8
2018-05-11T08:35:23.973Z,13.8
2018-05-11T08:36:23.300Z,13.8
2018-05-11T08:37:22.305Z,13.8
2018-05-11T08:38:21.649Z,13.7
2018-05-11T08:39:20.769Z,13.7
2018-05-11T08:40:20.198Z,13.7
2018-05-11T08:41:19.525Z,13.7
2018-05-11T08:42:18.861Z,13.7
2018-05-11T08:43:18.177Z,13.7
2018-05-11T08:43:48.922Z,13.7
2018-05-11T08:44:19.075Z,13.7
2018-05-11T08:44:49.601Z,13.7
2018-05-11T08:46:15.691Z,13.7
2018-05-11T08:47:15.305Z,13.8
2018-05-11T08:48:14.427Z,13.8
2018-05-11T08:49:13.757Z,13.8
2018-05-11T08:50:12.484Z,13.8
2018-05-11T08:51:12.205Z,13.8
2018-05-11T08:52:11.427Z,13.8
2018-05-11T08:53:10.253Z,13.7
2018-05-11T08:53:41.003Z,13.7
2018-05-11T08:54:11.237Z,13.8
2018-05-11T08:54:41.874Z,13.8
2018-05-11T08:55:12.512Z,13.8
2018-05-11T08:55:42.824Z,13.8
2018-05-11T08:57:07.722Z,13.9
2018-05-11T08:57:38.088Z,13.9
2018-05-11T08:59:06.003Z,14
2018-05-11T09:00:05.338Z,14
2018-05-11T09:01:04.769Z,14.1
2018-05-11T09:02:04.097Z,14.1
2018-05-11T09:03:03.184Z,14.1
2018-05-11T09:04:02.112Z,14.2
2018-05-11T09:05:01.224Z,14.2
2018-05-11T09:05:31.766Z,14.2
2018-05-11T09:06:02.331Z,14.2
2018-05-11T09:06:32.971Z,14.2
2018-05-11T09:07:03.396Z,14.2
2018-05-11T09:07:34.145Z,14.2
2018-05-11T09:08:58.744Z,14.1
2018-05-11T09:09:58.065Z,14.1
2018-05-11T09:10:57.388Z,14.2
2018-05-11T09:11:56.606Z,14.2
2018-05-11T09:12:55.929Z,14.1
2018-05-11T09:13:55.151Z,14.1
2018-05-11T09:14:54.082Z,14.2
2018-05-11T09:15:53.508Z,14.1
2018-05-11T09:16:52.834Z,14.1
2018-05-11T09:17:52.160Z,14.2
2018-05-11T09:18:51.486Z,14.2
2018-05-11T09:19:50.706Z,14.2
2018-05-11T09:20:49.917Z,14.2
2018-05-11T09:21:49.139Z,14.3
2018-05-11T09:22:48.252Z,14.3
2018-05-11T09:23:47.471Z,14.3
2018-05-11T09:24:46.798Z,14.4
2018-05-11T09:25:17.443Z,14.4
2018-05-11T09:25:47.971Z,14.4
2018-05-11T09:26:18.386Z,14.4
2018-05-11T09:27:44.888Z,14.4
2018-05-11T09:28:43.658Z,14.4
2018-05-11T09:30:42.374Z,14.5
2018-05-11T09:31:41.713Z,14.5
2018-05-11T09:32:40.992Z,14.5
2018-05-11T09:33:40.419Z,14.5
2018-05-11T09:34:39.755Z,14.6
2018-05-11T09:35:38.471Z,14.6
2018-05-11T09:36:09.103Z,14.6
2018-05-11T09:37:37.121Z,14.7
2018-05-11T09:38:07.263Z,14.7
2018-05-11T09:38:37.573Z,14.7
2018-05-11T09:39:36.085Z,14.8
2018-05-11T09:41:34.546Z,14.8
2018-05-11T09:42:33.662Z,14.7
2018-05-11T09:43:32.709Z,14.7
2018-05-11T09:44:32.039Z,14.7
2018-05-11T09:45:31.266Z,14.7
2018-05-11T09:46:30.587Z,14.8
2018-05-11T09:47:01.117Z,14.8
2018-05-11T09:47:31.353Z,14.9
2018-05-11T09:48:01.663Z,14.9
2018-05-11T09:48:32.080Z,14.9
2018-05-11T09:49:02.219Z,14.9
2018-05-11T09:49:33.181Z,14.8
2018-05-11T09:50:28.037Z,14.8
2018-05-11T09:51:26.964Z,14.9
2018-05-11T09:52:26.172Z,14.9
2018-05-11T09:53:25.889Z,14.9
2018-05-11T09:54:24.600Z,15
2018-05-11T09:55:24.443Z,15
2018-05-11T09:56:23.264Z,15
2018-05-11T09:57:22.502Z,15
2018-05-11T09:58:21.719Z,15
2018-05-11T09:59:21.216Z,15.1
2018-05-11T10:00:20.441Z,15
2018-05-11T10:01:19.755Z,15.1
2018-05-11T10:02:18.979Z,15.1
2018-05-11T10:03:18.297Z,15.2
2018-05-11T10:04:17.622Z,15.2
2018-05-11T10:05:16.947Z,15.2
2018-05-11T10:06:16.060Z,15.2
2018-05-11T10:07:15.401Z,15.2
2018-05-11T10:07:45.746Z,15.2
2018-05-11T10:08:16.054Z,15.2
2018-05-11T10:09:13.665Z,15.1
2018-05-11T10:10:13.605Z,15.2
2018-05-11T10:11:12.316Z,15.2
2018-05-11T10:12:11.754Z,15.3
2018-05-11T10:13:10.972Z,15.3
2018-05-11T10:14:10.307Z,15.4
2018-05-11T10:15:09.811Z,15.2
2018-05-11T10:16:09.150Z,15.3
2018-05-11T10:17:08.618Z,15.4
2018-05-11T10:18:07.339Z,15.4
2018-05-11T10:19:06.957Z,15.4
2018-05-11T10:20:06.394Z,15.4
2018-05-11T10:21:05.411Z,15.5
2018-05-11T10:23:04.024Z,15.5
2018-05-11T10:24:03.031Z,15.5
2018-05-11T10:25:02.767Z,15.5
2018-05-11T10:26:01.998Z,15.5
2018-05-11T10:27:01.008Z,15.5
2018-05-11T10:28:00.727Z,15.6
2018-05-11T10:28:59.622Z,15.6
2018-05-11T10:29:59.270Z,15.6
2018-05-11T10:30:58.268Z,15.7
2018-05-11T10:31:57.490Z,15.6
2018-05-11T10:32:56.814Z,15.6
2018-05-11T10:33:27.053Z,15.6
2018-05-11T10:33:57.302Z,15.7
2018-05-11T10:35:54.899Z,15.8
2018-05-11T10:36:54.120Z,15.8
2018-05-11T10:37:53.340Z,15.9
2018-05-11T10:38:52.663Z,15.9
2018-05-11T10:39:52.022Z,16
2018-05-11T10:40:50.912Z,15.8
2018-05-11T10:41:50.655Z,15.9
2018-05-11T10:42:49.980Z,15.9
2018-05-11T10:43:20.221Z,15.9
2018-05-11T10:43:50.853Z,15.9
2018-05-11T10:44:21.013Z,15.9
2018-05-11T10:44:51.648Z,15.8
2018-05-11T10:45:47.559Z,15.9
2018-05-11T10:46:46.895Z,15.9
2018-05-11T10:48:45.963Z,15.9
2018-05-11T10:49:44.772Z,15.9
2018-05-11T10:50:44.207Z,16
2018-05-11T10:52:42.841Z,16.1
2018-05-11T10:53:42.054Z,16.1
2018-05-11T10:55:40.654Z,16.3
2018-05-11T10:56:39.980Z,16.4
2018-05-11T10:57:39.194Z,16.4
2018-05-11T10:58:38.408Z,16.5
2018-05-11T10:59:37.633Z,16.6
2018-05-11T11:00:36.742Z,16.7
2018-05-11T11:01:36.573Z,16.8
2018-05-11T11:02:36.028Z,16.9
2018-05-11T11:03:06.668Z,16.9
2018-05-11T11:04:34.177Z,16.8
2018-05-11T11:05:33.800Z,16.9
2018-05-11T11:06:33.137Z,16.9
2018-05-11T11:08:31.752Z,16.8
2018-05-11T11:09:31.065Z,16.7
2018-05-11T11:10:30.289Z,16.7
2018-05-11T11:11:29.432Z,16.8
2018-05-11T11:12:28.647Z,16.8
2018-05-11T11:13:28.043Z,16.8
2018-05-11T11:13:58.335Z,16.8
2018-05-11T11:14:28.976Z,16.8
2018-05-11T11:14:59.215Z,16.8
2018-05-11T11:15:29.842Z,16.8
2018-05-11T11:16:00.086Z,16.8
2018-05-11T11:17:25.471Z,17
2018-05-11T11:18:24.797Z,17
2018-05-11T11:19:24.052Z,17.1
2018-05-11T11:20:23.481Z,17.2
2018-05-11T11:21:22.919Z,17.3
2018-05-11T11:22:22.029Z,17.5
2018-05-11T11:23:21.146Z,17.6
2018-05-11T11:24:20.573Z,17.6
2018-05-11T11:24:50.994Z,17.6
2018-05-11T11:25:21.828Z,17.7
2018-05-11T11:25:52.540Z,17.7
2018-05-11T11:26:22.800Z,17.7
2018-05-11T11:26:53.227Z,17.7
2018-05-11T11:28:17.835Z,17.8
2018-05-11T11:29:17.158Z,17.9
2018-05-11T11:30:16.261Z,17.9
2018-05-11T11:32:15.480Z,17.9
2018-05-11T11:33:14.590Z,17.9
2018-05-11T11:34:14.063Z,18
2018-05-11T11:35:13.439Z,18.2
2018-05-11T11:36:12.268Z,18.3
2018-05-11T11:37:11.701Z,18.4
2018-05-11T11:38:11.026Z,18.6
2018-05-11T11:39:10.350Z,18.4
2018-05-11T11:40:10.077Z,18.5
2018-05-11T11:41:09.581Z,18.5
2018-05-11T11:42:08.933Z,18.3
2018-05-11T11:43:08.012Z,18.2
2018-05-11T11:44:07.335Z,18.1
2018-05-11T11:45:06.669Z,18.2
2018-05-11T11:46:06.100Z,18
2018-05-11T11:48:04.924Z,18
2018-05-11T11:49:04.265Z,18
2018-05-11T11:50:03.207Z,18
2018-05-11T11:51:02.551Z,18
2018-05-11T11:52:01.782Z,17.9
2018-05-11T11:53:01.399Z,18
2018-05-11T11:54:00.727Z,18
2018-05-11T11:55:59.732Z,18
2018-05-11T11:56:58.460Z,18.1
2018-05-11T11:57:28.872Z,18.1
2018-05-11T11:57:59.514Z,18.1
2018-05-11T11:58:30.084Z,18.1
2018-05-11T11:59:57.121Z,18.1
2018-05-11T12:00:56.338Z,17.7
2018-05-11T12:01:55.738Z,17.7
2018-05-11T12:02:54.809Z,17.8
2018-05-11T12:03:54.132Z,17.8
2018-05-11T12:04:53.356Z,17.8
2018-05-11T12:05:52.679Z,17.8
2018-05-11T12:06:52.102Z,17.9
2018-05-11T12:07:51.318Z,18.1
2018-05-11T12:08:51.436Z,18.3
2018-05-11T12:09:50.261Z,18.4
2018-05-11T12:10:49.696Z,18.5
2018-05-11T12:11:48.935Z,18.7
2018-05-11T12:14:47.153Z,19.4
2018-05-11T12:15:46.515Z,19.5
2018-05-11T12:16:45.695Z,19.7
2018-05-11T12:18:44.518Z,20.1
2018-05-11T12:19:43.956Z,20.2
2018-05-11T12:20:43.076Z,20.1
2018-05-11T12:21:42.498Z,20.2
2018-05-11T12:22:42.217Z,20.3
2018-05-11T12:23:41.536Z,20.2
2018-05-11T12:24:40.755Z,20.1
2018-05-11T12:25:40.095Z,19.9
2018-05-11T12:26:39.828Z,19.9
2018-05-11T12:27:39.161Z,19.9
2018-05-11T12:28:38.498Z,19.8
2018-05-11T12:30:36.965Z,19.5
2018-05-11T12:31:36.792Z,19.2
2018-05-11T12:32:36.190Z,18.9
2018-05-11T12:33:35.511Z,18.7
2018-05-11T12:34:34.832Z,18.7
2018-05-11T12:36:33.545Z,18.2
2018-05-11T12:37:32.753Z,18.3
2018-05-11T12:38:32.273Z,18.3
2018-05-11T12:39:31.486Z,18.2
2018-05-11T12:40:30.952Z,18.2
2018-05-11T12:41:30.164Z,18.1
2018-05-11T12:42:29.595Z,18
2018-05-11T12:43:28.924Z,18
2018-05-11T12:44:28.367Z,18.1
2018-05-11T12:45:27.802Z,18.1
2018-05-11T12:46:27.527Z,18.1
2018-05-11T12:47:26.367Z,18.3
2018-05-11T12:48:25.807Z,18.6
2018-05-11T12:49:25.640Z,18.9
2018-05-11T12:50:24.867Z,19.1
2018-05-11T12:51:24.315Z,19.4
2018-05-11T12:52:23.531Z,19.8
2018-05-11T12:53:22.747Z,20.1
2018-05-11T12:54:22.575Z,20.3
2018-05-11T12:55:21.908Z,20.6
2018-05-11T12:57:20.731Z,21.1
2018-05-11T12:58:19.944Z,21.4
2018-05-11T12:59:19.273Z,21.6
2018-05-11T13:00:18.499Z,21.9
2018-05-11T13:01:17.896Z,22.1
2018-05-11T13:02:17.728Z,22.1